createdAt,value
2018-09-10T00:01:32.574Z,2.87
2018-09-10T00:04:01.458Z,2.90
2018-09-10T00:06:30.416Z,2.70
2018-09-10T00:08:59.025Z,2.93
2018-09-10T00:11:27.598Z,3.57
2018-09-10T00:13:56.175Z,3.10
2018-09-10T00:16:24.721Z,2.70
2018-09-10T00:18:53.336Z,2.80
2018-09-10T00:21:21.929Z,3.50
2018-09-10T00:23:50.490Z,2.83
2018-09-10T00:26:19.496Z,3.03
2018-09-10T00:28:48.059Z,2.83
2018-09-10T00:31:16.650Z,2.97
2018-09-10T00:33:45.562Z,2.70
2018-09-10T00:39:00.751Z,3.00
2018-09-10T00:41:29.853Z,3.07
2018-09-10T00:43:59.563Z,3.17
2018-09-10T00:46:29.143Z,3.23
2018-09-10T00:48:58.598Z,3.20
2018-09-10T00:51:27.130Z,3.43
2018-09-10T00:53:55.970Z,2.93
2018-09-10T00:56:26.191Z,3.00
2018-09-10T00:58:55.070Z,2.57
2018-09-10T01:01:24.596Z,3.10
2018-09-10T01:03:53.177Z,2.87
2018-09-10T01:06:21.700Z,2.90
2018-09-10T01:08:50.274Z,3.33
2018-09-10T01:11:20.837Z,3.47
2018-09-10T01:13:50.377Z,3.20
2018-09-10T01:16:18.984Z,3.30
2018-09-10T01:18:47.564Z,3.00
2018-09-10T01:21:16.755Z,3.20
2018-09-10T01:23:46.283Z,2.67
2018-09-10T01:26:14.843Z,3.10
2018-09-10T01:28:43.376Z,3.33
2018-09-10T01:31:12.202Z,4.03
2018-09-10T01:33:45.865Z,3.00
2018-09-10T01:36:14.491Z,3.17
2018-09-10T01:38:43.067Z,2.87
2018-09-10T01:41:12.031Z,3.30
2018-09-10T01:43:40.595Z,3.10
2018-09-10T01:46:10.344Z,2.93
2018-09-10T01:48:38.942Z,3.47
2018-09-10T01:51:07.606Z,2.90
2018-09-10T01:53:36.211Z,3.87
2018-09-10T01:56:05.190Z,3.20
2018-09-10T01:58:34.108Z,3.37
2018-09-10T02:01:02.638Z,3.23
2018-09-10T02:03:31.237Z,3.50
2018-09-10T02:05:59.768Z,3.23
2018-09-10T02:08:28.374Z,3.40
2018-09-10T02:10:58.327Z,3.60
2018-09-10T02:13:26.886Z,3.43
2018-09-10T02:15:55.435Z,4.17
2018-09-10T02:18:24.012Z,3.03
2018-09-10T02:20:52.600Z,3.40
2018-09-10T02:23:21.784Z,3.57
2018-09-10T02:25:50.458Z,3.40
2018-09-10T02:28:18.999Z,2.90
2018-09-10T02:30:48.418Z,3.23
2018-09-10T02:33:17.225Z,3.37
2018-09-10T02:35:45.822Z,3.17
2018-09-10T02:38:14.463Z,3.30
2018-09-10T02:40:43.959Z,3.70
2018-09-10T02:43:12.538Z,3.50
2018-09-10T02:45:41.501Z,3.60
2018-09-10T02:48:10.121Z,3.67
2018-09-10T02:50:38.682Z,4.00
2018-09-10T02:53:07.211Z,3.90
2018-09-10T02:55:35.805Z,3.80
2018-09-10T02:58:04.781Z,4.00
2018-09-10T03:00:34.635Z,3.70
2018-09-10T03:03:03.847Z,3.77
2018-09-10T03:05:32.392Z,4.37
2018-09-10T03:08:01.660Z,3.70
2018-09-10T03:10:31.132Z,4.20
2018-09-10T03:12:59.651Z,3.73
2018-09-10T03:15:28.810Z,3.90
2018-09-10T03:17:57.413Z,3.67
2018-09-10T03:20:25.933Z,3.80
2018-09-10T03:22:54.965Z,3.40
2018-09-10T03:25:23.541Z,3.90
2018-09-10T03:27:52.095Z,4.10
2018-09-10T03:30:21.951Z,3.90
2018-09-10T03:32:50.474Z,3.60
2018-09-10T03:35:19.075Z,3.53
2018-09-10T03:37:47.597Z,3.57
2018-09-10T03:40:16.278Z,3.43
2018-09-10T03:42:45.680Z,3.93
2018-09-10T03:45:15.680Z,3.57
2018-09-10T03:47:44.215Z,4.67
2018-09-10T03:50:12.773Z,4.13
2018-09-10T03:52:41.398Z,4.23
2018-09-10T03:55:09.959Z,5.17
2018-09-10T03:57:38.518Z,3.87
2018-09-10T04:00:11.279Z,4.00
2018-09-10T04:02:39.858Z,3.80
2018-09-10T04:05:09.322Z,3.63
2018-09-10T04:07:38.006Z,4.00
2018-09-10T04:10:06.961Z,4.50
2018-09-10T04:12:35.640Z,3.93
2018-09-10T04:15:05.125Z,4.30
2018-09-10T04:17:33.988Z,4.20
2018-09-10T04:20:11.678Z,4.47
2018-09-10T04:22:42.225Z,3.87
2018-09-10T04:25:12.515Z,4.43
2018-09-10T04:27:41.082Z,4.50
2018-09-10T04:30:17.520Z,4.30
2018-09-10T04:32:46.962Z,3.60
2018-09-10T04:35:16.762Z,4.33
2018-09-10T04:37:45.350Z,4.87
2018-09-10T04:40:14.214Z,4.73
2018-09-10T04:42:42.849Z,4.00
2018-09-10T04:45:13.540Z,4.60
2018-09-10T04:47:42.388Z,4.30
2018-09-10T04:50:10.972Z,4.30
2018-09-10T04:52:39.479Z,3.90
2018-09-10T04:55:08.030Z,4.10
2018-09-10T04:57:36.626Z,4.50
2018-09-10T05:00:05.709Z,5.27
2018-09-10T05:02:34.293Z,4.33
2018-09-10T05:05:02.864Z,4.50
2018-09-10T05:07:31.762Z,4.97
2018-09-10T05:10:00.353Z,4.17
2018-09-10T05:12:30.083Z,4.20
2018-09-10T05:14:59.276Z,4.43
2018-09-10T05:17:29.074Z,4.60
2018-09-10T05:19:59.269Z,3.70
2018-09-10T05:22:27.834Z,4.20
2018-09-10T05:24:57.097Z,4.40
2018-09-10T05:27:26.301Z,4.63
2018-09-10T05:29:54.866Z,4.33
2018-09-10T05:32:23.448Z,4.27
2018-09-10T05:34:51.979Z,4.20
2018-09-10T05:37:20.590Z,4.30
2018-09-10T05:39:49.142Z,4.60
2018-09-10T05:42:17.724Z,4.50
2018-09-10T05:44:46.620Z,4.07
2018-09-10T05:47:15.467Z,4.10
2018-09-10T05:49:44.026Z,3.93
2018-09-10T05:52:12.606Z,3.70
2018-09-10T05:54:41.166Z,4.20
2018-09-10T05:57:09.749Z,5.13
2018-09-10T05:59:38.347Z,4.70
2018-09-10T06:02:07.659Z,4.10
2018-09-10T06:07:35.225Z,4.33
2018-09-10T06:10:03.840Z,4.40
2018-09-10T06:12:32.750Z,4.30
2018-09-10T06:15:01.284Z,4.57
2018-09-10T06:17:29.878Z,5.70
2018-09-10T06:19:58.482Z,4.50
2018-09-10T06:22:27.017Z,5.10
2018-09-10T06:24:55.594Z,4.63
2018-09-10T06:27:24.195Z,4.70
2018-09-10T06:29:52.737Z,4.70
2018-09-10T06:32:21.335Z,5.10
2018-09-10T06:34:49.998Z,4.73
2018-09-10T06:37:19.513Z,4.90
2018-09-10T06:39:48.159Z,5.10
2018-09-10T06:42:17.787Z,4.10
2018-09-10T06:44:46.341Z,4.87
2018-09-10T06:47:14.873Z,4.40
2018-09-10T06:49:43.577Z,4.77
2018-09-10T06:52:12.844Z,4.70
2018-09-10T06:54:41.486Z,4.63
2018-09-10T06:57:10.422Z,3.53
2018-09-10T06:59:39.206Z,4.23
2018-09-10T07:02:07.755Z,4.40
2018-09-10T07:04:36.308Z,4.53
2018-09-10T07:07:07.175Z,4.40
2018-09-10T07:09:37.289Z,4.60
2018-09-10T07:12:06.020Z,4.67
2018-09-10T07:14:35.568Z,4.70
2018-09-10T07:17:04.219Z,4.83
2018-09-10T07:19:32.814Z,4.13
2018-09-10T07:22:01.360Z,5.10
2018-09-10T07:24:30.104Z,4.50
2018-09-10T07:26:58.670Z,4.73
2018-09-10T07:29:27.278Z,4.30
2018-09-10T07:31:55.850Z,4.30
2018-09-10T07:34:24.399Z,4.63
2018-09-10T07:36:52.962Z,4.40
2018-09-10T07:39:21.462Z,4.50
2018-09-10T07:41:50.026Z,4.47
2018-09-10T07:44:18.632Z,4.73
2018-09-10T07:46:47.205Z,4.57
2018-09-10T07:49:15.854Z,4.50
2018-09-10T07:51:44.646Z,5.10
2018-09-10T07:54:13.212Z,3.70
2018-09-10T07:56:41.831Z,4.37
2018-09-10T07:59:10.438Z,3.80
2018-09-10T08:01:39.009Z,4.47
2018-09-10T08:04:07.563Z,4.50
2018-09-10T08:06:36.106Z,4.23
2018-09-10T08:09:06.123Z,4.03
2018-09-10T08:11:34.673Z,4.40
2018-09-10T08:14:03.217Z,3.97
2018-09-10T08:16:31.857Z,4.70
2018-09-10T08:19:00.418Z,3.70
2018-09-10T08:21:29.200Z,3.70
2018-09-10T08:23:57.818Z,3.97
2018-09-10T08:26:26.461Z,3.80
2018-09-10T08:28:55.128Z,4.37
2018-09-10T08:31:23.653Z,4.33
2018-09-10T08:33:52.199Z,3.70
2018-09-10T08:36:20.744Z,3.60
2018-09-10T08:38:49.347Z,3.43
2018-09-10T08:41:18.062Z,4.17
2018-09-10T08:43:46.664Z,3.40
2018-09-10T08:46:15.421Z,3.63
2018-09-10T08:48:44.494Z,3.83
2018-09-10T08:51:13.049Z,3.90
2018-09-10T08:53:41.644Z,4.00
2018-09-10T08:56:10.496Z,3.63
2018-09-10T08:58:38.866Z,3.93
2018-09-10T09:01:07.500Z,3.40
2018-09-10T09:03:36.061Z,3.43
2018-09-10T09:06:04.685Z,3.87
2018-09-10T09:08:33.163Z,3.67
2018-09-10T09:11:02.051Z,3.60
2018-09-10T09:13:30.603Z,3.87
2018-09-10T09:15:59.127Z,4.47
2018-09-10T09:18:27.754Z,3.53
2018-09-10T09:20:56.314Z,3.33
2018-09-10T09:23:25.043Z,3.50
2018-09-10T09:25:53.634Z,3.20
2018-09-10T09:28:22.211Z,3.90
2018-09-10T09:30:50.821Z,3.30
2018-09-10T09:33:19.362Z,3.30
2018-09-10T09:35:53.120Z,3.43
2018-09-10T09:38:26.913Z,3.40
2018-09-10T09:41:00.852Z,3.50
2018-09-10T09:43:34.747Z,2.90
2018-09-10T09:46:06.096Z,3.00
2018-09-10T09:48:34.855Z,2.80
2018-09-10T09:51:10.123Z,3.20
2018-09-10T09:53:38.707Z,3.40
2018-09-10T09:56:07.323Z,2.67
2018-09-10T09:58:36.002Z,3.10
2018-09-10T10:01:09.894Z,2.70
2018-09-10T10:03:43.734Z,2.80
2018-09-10T10:06:12.260Z,2.83
2018-09-10T10:08:40.857Z,2.80
2018-09-10T10:11:09.545Z,2.10
2018-09-10T10:13:38.083Z,2.30
2018-09-10T10:16:06.659Z,2.57
2018-09-10T10:18:35.293Z,2.00
2018-09-10T10:21:03.907Z,1.97
2018-09-10T10:23:32.596Z,1.80
2018-09-10T10:26:01.077Z,2.30
2018-09-10T10:28:29.820Z,1.87
2018-09-10T10:30:58.558Z,1.97
2018-09-10T10:33:27.159Z,1.73
2018-09-10T10:35:55.893Z,2.40
2018-09-10T10:38:24.444Z,2.30
2018-09-10T10:40:53.399Z,1.70
2018-09-10T10:43:21.952Z,1.73
2018-09-10T10:45:50.800Z,2.40
2018-09-10T10:48:34.117Z,2.23
2018-09-10T10:51:03.182Z,2.70
2018-09-10T10:53:31.763Z,1.90
2018-09-10T10:56:00.424Z,2.00
2018-09-10T10:58:29.069Z,1.90
2018-09-10T11:00:57.718Z,1.80
2018-09-10T11:03:26.458Z,1.53
2018-09-10T11:05:56.090Z,2.00
2018-09-10T11:08:25.030Z,1.53
2018-09-10T11:10:54.082Z,1.83
2018-09-10T11:13:22.812Z,4.17
2018-09-10T11:15:51.598Z,1.30
2018-09-10T11:18:20.321Z,1.50
2018-09-10T11:20:50.012Z,1.60
2018-09-10T11:23:18.576Z,1.30
2018-09-10T11:25:47.292Z,1.43
2018-09-10T11:28:16.219Z,1.50
2018-09-10T11:30:44.922Z,1.70
2018-09-10T11:33:13.535Z,1.33
2018-09-10T11:35:42.165Z,1.60
2018-09-10T11:38:10.782Z,1.40
2018-09-10T11:40:39.354Z,1.90
2018-09-10T11:43:08.331Z,1.70
2018-09-10T11:45:37.261Z,1.90
2018-09-10T11:48:06.218Z,1.80
2018-09-10T11:50:35.483Z,2.07
2018-09-10T11:53:04.141Z,2.00
2018-09-10T11:55:33.764Z,2.70
2018-09-10T11:58:02.271Z,2.50
2018-09-10T12:00:31.474Z,2.53
2018-09-10T12:03:02.777Z,2.20
2018-09-10T12:05:33.454Z,2.70
2018-09-10T12:08:02.067Z,2.70
2018-09-10T12:10:30.673Z,4.63
2018-09-10T12:12:59.348Z,3.33
2018-09-10T12:15:27.983Z,3.23
2018-09-10T12:17:56.623Z,3.70
2018-09-10T12:20:25.198Z,2.60
2018-09-10T12:22:54.296Z,2.93
2018-09-10T12:25:25.145Z,3.17
2018-09-10T12:27:55.688Z,2.83
2018-09-10T12:30:24.555Z,2.67
2018-09-10T12:32:53.128Z,2.50
2018-09-10T12:35:21.675Z,2.70
2018-09-10T12:37:51.683Z,3.10
2018-09-10T12:40:23.159Z,2.77
2018-09-10T12:42:51.903Z,2.90
2018-09-10T12:45:20.682Z,2.30
2018-09-10T12:47:49.363Z,2.70
2018-09-10T12:50:18.170Z,2.90
2018-09-10T12:52:47.636Z,2.30
2018-09-10T12:55:16.288Z,2.30
2018-09-10T12:57:44.822Z,2.50
2018-09-10T13:00:14.811Z,2.57
2018-09-10T13:02:45.296Z,2.63
2018-09-10T13:05:14.144Z,2.60
2018-09-10T13:07:43.282Z,2.77
2018-09-10T13:10:11.773Z,2.20
2018-09-10T13:12:40.290Z,2.73
2018-09-10T13:15:08.854Z,3.00
2018-09-10T13:17:37.425Z,1.90
2018-09-10T13:20:06.553Z,2.07
2018-09-10T13:22:38.100Z,2.60
2018-09-10T13:25:08.551Z,2.50
2018-09-10T13:27:39.070Z,2.50
2018-09-10T13:30:07.712Z,2.30
2018-09-10T13:32:36.242Z,2.53
2018-09-10T13:35:04.887Z,2.40
2018-09-10T13:37:34.145Z,2.80
2018-09-10T13:40:03.028Z,2.70
2018-09-10T13:42:31.581Z,2.67
2018-09-10T13:45:00.115Z,2.43
2018-09-10T13:47:28.759Z,2.23
2018-09-10T13:49:57.370Z,2.73
2018-09-10T13:52:25.890Z,2.70
2018-09-10T13:54:55.036Z,2.60
2018-09-10T13:57:23.545Z,2.57
2018-09-10T13:59:52.049Z,2.77
2018-09-10T14:02:20.681Z,2.77
2018-09-10T14:04:49.217Z,2.90
2018-09-10T14:07:17.973Z,2.70
2018-09-10T14:09:46.586Z,2.73
2018-09-10T14:12:15.496Z,2.87
2018-09-10T14:14:44.071Z,3.00
2018-09-10T14:17:12.974Z,2.63
2018-09-10T14:19:41.652Z,3.07
2018-09-10T14:22:10.935Z,3.30
2018-09-10T14:24:40.519Z,2.50
2018-09-10T14:27:09.727Z,2.90
2018-09-10T14:29:39.771Z,2.80
2018-09-10T14:32:08.471Z,2.97
2018-09-10T14:34:37.370Z,2.63
2018-09-10T14:37:06.910Z,3.20
2018-09-10T14:39:36.111Z,3.03
2018-09-10T14:42:04.970Z,2.87
2018-09-10T14:44:33.588Z,3.07
2018-09-10T14:47:02.110Z,2.97
2018-09-10T14:49:30.670Z,3.30
2018-09-10T14:51:59.313Z,3.00
2018-09-10T14:54:27.869Z,2.77
2018-09-10T14:56:56.415Z,2.90
2018-09-10T14:59:24.993Z,2.57
2018-09-10T15:01:53.800Z,2.70
2018-09-10T15:04:22.431Z,3.17
2018-09-10T15:06:52.179Z,2.40
2018-09-10T15:09:20.827Z,2.73
2018-09-10T15:11:49.461Z,2.70
2018-09-10T15:14:18.667Z,3.17
2018-09-10T15:16:47.324Z,2.40
2018-09-10T15:19:16.722Z,2.40
2018-09-10T15:21:45.280Z,3.57
2018-09-10T15:24:13.944Z,3.00
2018-09-10T15:26:43.406Z,3.90
2018-09-10T15:29:12.006Z,2.77
2018-09-10T15:31:40.692Z,2.70
2018-09-10T15:34:09.360Z,2.87
2018-09-10T15:36:37.954Z,2.77
2018-09-10T15:39:07.642Z,2.53
2018-09-10T15:41:36.305Z,2.27
2018-09-10T15:44:05.941Z,2.30
2018-09-10T15:46:34.761Z,2.70
2018-09-10T15:49:04.564Z,2.87
2018-09-10T15:51:33.651Z,2.70
2018-09-10T15:54:02.289Z,2.43
2018-09-10T15:56:32.041Z,2.43
2018-09-10T15:59:00.926Z,2.40
2018-09-10T16:01:29.537Z,3.13
2018-09-10T16:03:58.245Z,2.57
2018-09-10T16:06:28.136Z,2.90
2018-09-10T16:08:58.128Z,2.30
2018-09-10T16:11:27.537Z,2.90
2018-09-10T16:13:56.163Z,2.80
2018-09-10T16:16:25.013Z,3.10
2018-09-10T16:18:53.753Z,3.07
2018-09-10T16:21:25.017Z,2.90
2018-09-10T16:23:55.042Z,2.47
2018-09-10T16:26:23.727Z,2.67
2018-09-10T16:28:52.359Z,2.80
2018-09-10T16:31:20.976Z,2.63
2018-09-10T16:33:49.646Z,2.90
2018-09-10T16:36:18.392Z,2.47
2018-09-10T16:38:47.920Z,2.93
2018-09-10T16:41:16.595Z,2.70
2018-09-10T16:43:45.212Z,2.50
2018-09-10T16:46:14.532Z,2.80
2018-09-10T16:48:43.171Z,3.00
2018-09-10T16:51:11.804Z,2.90
2018-09-10T16:53:40.381Z,2.70
2018-09-10T16:56:09.560Z,3.00
2018-09-10T16:58:38.747Z,3.33
2018-09-10T17:01:07.780Z,3.03
2018-09-10T17:03:36.964Z,3.60
2018-09-10T17:06:05.588Z,3.90
2018-09-10T17:08:35.820Z,2.70
2018-09-10T17:11:05.395Z,3.13
2018-09-10T17:13:34.027Z,2.73
2018-09-10T17:16:02.727Z,3.30
2018-09-10T17:18:31.530Z,2.90
2018-09-10T17:21:00.226Z,3.53
2018-09-10T17:23:28.852Z,3.20
2018-09-10T17:25:57.572Z,2.90
2018-09-10T17:28:26.742Z,3.23
2018-09-10T17:30:55.337Z,3.30
2018-09-10T17:33:23.901Z,2.83
2018-09-10T17:35:52.526Z,3.60
2018-09-10T17:38:21.096Z,4.13
2018-09-10T17:40:49.692Z,4.37
2018-09-10T17:43:19.107Z,3.40
2018-09-10T17:45:49.419Z,2.80
2018-09-10T17:48:20.647Z,3.07
2018-09-10T17:50:49.196Z,2.60
2018-09-10T17:53:17.835Z,2.97
2018-09-10T17:55:46.445Z,4.10
2018-09-10T17:58:14.969Z,2.80
2018-09-10T18:00:46.241Z,4.43
2018-09-10T18:03:15.645Z,4.87
2018-09-10T18:05:45.078Z,4.30
2018-09-10T18:08:14.966Z,4.23
2018-09-10T18:10:44.296Z,3.80
2018-09-10T18:13:12.925Z,3.70
2018-09-10T18:15:42.042Z,3.20
2018-09-10T18:18:11.143Z,2.70
2018-09-10T18:20:39.934Z,3.10
2018-09-10T18:23:09.375Z,3.93
2018-09-10T18:25:37.937Z,5.00
2018-09-10T18:28:06.462Z,4.70
2018-09-10T18:30:35.945Z,3.00
2018-09-10T18:33:04.581Z,2.83
2018-09-10T18:35:33.826Z,2.73
2018-09-10T18:38:02.346Z,2.80
2018-09-10T18:40:30.932Z,3.23
2018-09-10T18:42:59.543Z,3.40
2018-09-10T18:45:28.995Z,3.20
2018-09-10T18:48:00.484Z,2.87
2018-09-10T18:50:29.664Z,2.93
2018-09-10T18:52:59.510Z,2.83
2018-09-10T18:55:28.247Z,3.07
2018-09-10T18:57:56.998Z,2.90
2018-09-10T19:00:26.861Z,2.80
2018-09-10T19:02:55.795Z,3.00
2018-09-10T19:05:25.362Z,3.90
2018-09-10T19:07:58.394Z,3.73
2018-09-10T19:10:27.034Z,4.30
2018-09-10T19:12:55.577Z,5.47
2018-09-10T19:15:24.107Z,5.40
2018-09-10T19:17:52.721Z,3.40
2018-09-10T19:20:21.278Z,3.57
2018-09-10T19:22:50.409Z,3.30
2018-09-10T19:25:18.937Z,2.97
2018-09-10T19:27:47.557Z,3.07
2018-09-10T19:30:16.104Z,2.50
2018-09-10T19:32:44.897Z,2.57
2018-09-10T19:35:14.159Z,2.30
2018-09-10T19:37:42.710Z,3.07
2018-09-10T19:40:14.478Z,3.20
2018-09-10T19:42:43.574Z,3.07
2018-09-10T19:45:12.192Z,2.60
2018-09-10T19:47:41.873Z,2.80
2018-09-10T19:50:10.427Z,2.43
2018-09-10T19:52:39.320Z,3.90
2018-09-10T19:55:07.933Z,2.80
2018-09-10T19:57:37.944Z,2.70
2018-09-10T20:00:07.672Z,3.00
2018-09-10T20:02:36.237Z,3.10
2018-09-10T20:05:04.846Z,3.20
2018-09-10T20:07:33.732Z,2.87
2018-09-10T20:10:02.303Z,2.80
2018-09-10T20:12:31.044Z,2.90
2018-09-10T20:14:59.708Z,2.87
2018-09-10T20:17:28.267Z,2.67
2018-09-10T20:19:57.051Z,3.13
2018-09-10T20:22:25.574Z,3.30
2018-09-10T20:24:54.066Z,3.20
2018-09-10T20:27:22.908Z,3.03
2018-09-10T20:29:51.442Z,2.90
2018-09-10T20:32:20.125Z,2.80
2018-09-10T20:34:48.712Z,2.30
2018-09-10T20:37:17.234Z,3.20
2018-09-10T20:39:45.865Z,3.20
2018-09-10T20:42:14.430Z,2.93
2018-09-10T20:44:42.936Z,2.80
2018-09-10T20:47:11.491Z,3.10
2018-09-10T20:49:40.057Z,3.40
2018-09-10T20:52:08.956Z,3.07
2018-09-10T20:54:37.395Z,2.90
2018-09-10T20:57:06.037Z,2.83
2018-09-10T20:59:34.695Z,2.77
2018-09-10T21:02:05.104Z,3.00
2018-09-10T21:04:33.691Z,2.87
2018-09-10T21:07:02.201Z,3.33
2018-09-10T21:09:30.756Z,3.20
2018-09-10T21:11:59.356Z,3.60
2018-09-10T21:14:27.914Z,2.97
2018-09-10T21:16:57.159Z,3.30
2018-09-10T21:19:25.643Z,2.60
2018-09-10T21:24:53.137Z,3.00
2018-09-10T21:27:26.683Z,3.53
2018-09-10T21:29:55.322Z,3.33
2018-09-10T21:32:24.912Z,3.50
2018-09-10T21:34:53.462Z,3.77
2018-09-10T21:37:22.182Z,3.63
2018-09-10T21:39:51.662Z,4.10
2018-09-10T21:42:21.603Z,3.80
2018-09-10T21:44:51.701Z,3.70
2018-09-10T21:47:20.509Z,4.07
2018-09-10T21:49:49.688Z,4.07
2018-09-10T21:52:18.765Z,3.50
2018-09-10T21:54:47.337Z,4.13
2018-09-10T21:57:16.604Z,4.00
2018-09-10T21:59:45.127Z,3.90
2018-09-10T22:02:13.721Z,4.80
2018-09-10T22:04:42.229Z,4.50
2018-09-10T22:07:10.792Z,3.87
2018-09-10T22:09:41.470Z,4.50
2018-09-10T22:12:10.093Z,3.43
2018-09-10T22:14:38.650Z,3.93
2018-09-10T22:17:08.415Z,4.40
2018-09-10T22:19:36.970Z,4.00
2018-09-10T22:22:05.629Z,4.10
2018-09-10T22:24:34.245Z,4.00
2018-09-10T22:27:03.438Z,3.33
2018-09-10T22:29:31.967Z,3.90
2018-09-10T22:32:02.311Z,3.63
2018-09-10T22:34:31.080Z,3.40
2018-09-10T22:37:00.626Z,3.93
2018-09-10T22:39:31.198Z,3.77
2018-09-10T22:42:00.538Z,3.83
2018-09-10T22:44:29.234Z,4.33
2018-09-10T22:46:58.153Z,3.50
2018-09-10T22:49:26.845Z,3.70
2018-09-10T22:51:55.437Z,4.00
2018-09-10T22:54:24.989Z,3.50
2018-09-10T22:56:53.522Z,3.40
2018-09-10T22:59:22.050Z,3.33
2018-09-10T23:01:50.579Z,4.43
2018-09-10T23:04:19.101Z,3.90
2018-09-10T23:06:48.327Z,3.50
2018-09-10T23:09:16.821Z,3.87
2018-09-10T23:11:45.366Z,3.47
2018-09-10T23:14:13.889Z,3.90
2018-09-10T23:16:43.231Z,4.10
2018-09-10T23:19:12.158Z,3.97
2018-09-10T23:21:45.516Z,3.87
2018-09-10T23:24:14.231Z,4.07
2018-09-10T23:26:42.784Z,4.47
2018-09-10T23:29:11.306Z,3.53
2018-09-10T23:31:39.850Z,3.97
2018-09-10T23:34:09.408Z,4.17
2018-09-10T23:36:37.923Z,4.27
2018-09-10T23:39:08.425Z,3.37
2018-09-10T23:41:37.095Z,3.63
2018-09-10T23:44:05.891Z,4.30
2018-09-10T23:46:34.449Z,3.40
2018-09-10T23:49:03.317Z,4.20
2018-09-10T23:51:31.954Z,3.70
2018-09-10T23:54:01.117Z,4.50
2018-09-10T23:56:31.478Z,4.60
2018-09-10T23:59:00.036Z,4.43
